sensor_id;sensor_type;location;lat;lon;timestamp;pressure;altitude;pressure_sealevel;temperature;humidity
26083;BME280;13848;49.018;12.078;2023-04-08T00:01:45;97690.56;;;7.84;49.89
26083;BME280;13848;49.018;12.078;2023-04-08T00:04:11;97689.09;;;7.81;49.29
26083;BME280;13848;49.018;12.078;2023-04-08T00:06:38;97684.53;;;7.82;49.28
26083;BME280;13848;49.018;12.078;2023-04-08T00:09:04;97687.44;;;7.80;49.13
26083;BME280;13848;49.018;12.078;2023-04-08T00:11:30;97689.91;;;7.82;49.11
26083;BME280;13848;49.018;12.078;2023-04-08T00:13:56;97693.63;;;7.81;49.37
26083;BME280;13848;49.018;12.078;2023-04-08T00:16:22;97687.66;;;7.79;48.92
26083;BME280;13848;49.018;12.078;2023-04-08T00:18:48;97687.00;;;7.77;48.96
26083;BME280;13848;49.018;12.078;2023-04-08T00:21:14;97694.44;;;7.74;49.14
26083;BME280;13848;49.018;12.078;2023-04-08T00:23:41;97694.06;;;7.78;48.41
26083;BME280;13848;49.018;12.078;2023-04-08T00:26:07;97700.63;;;7.62;48.97
26083;BME280;13848;49.018;12.078;2023-04-08T00:28:33;97698.53;;;7.57;48.44
26083;BME280;13848;49.018;12.078;2023-04-08T00:30:59;97694.41;;;7.48;48.65
26083;BME280;13848;49.018;12.078;2023-04-08T00:33:25;97699.78;;;7.55;48.63
26083;BME280;13848;49.018;12.078;2023-04-08T00:35:51;97699.34;;;7.51;48.39
26083;BME280;13848;49.018;12.078;2023-04-08T00:38:17;97702.25;;;7.50;48.63
26083;BME280;13848;49.018;12.078;2023-04-08T00:40:44;97696.84;;;7.43;48.34
26083;BME280;13848;49.018;12.078;2023-04-08T00:43:11;97706.13;;;7.47;48.85
26083;BME280;13848;49.018;12.078;2023-04-08T00:45:37;97703.19;;;7.29;48.49
26083;BME280;13848;49.018;12.078;2023-04-08T00:48:03;97708.34;;;7.30;48.79
26083;BME280;13848;49.018;12.078;2023-04-08T00:50:30;97699.06;;;7.26;48.33
26083;BME280;13848;49.018;12.078;2023-04-08T00:52:56;97697.19;;;7.20;48.60
26083;BME280;13848;49.018;12.078;2023-04-08T00:55:22;97702.94;;;7.17;49.00
26083;BME280;13848;49.018;12.078;2023-04-08T00:57:49;97708.72;;;7.20;48.34
26083;BME280;13848;49.018;12.078;2023-04-08T01:00:15;97710.75;;;7.18;48.83
26083;BME280;13848;49.018;12.078;2023-04-08T01:02:44;97703.38;;;7.20;48.50
26083;BME280;13848;49.018;12.078;2023-04-08T01:05:14;97713.28;;;7.20;48.79
26083;BME280;13848;49.018;12.078;2023-04-08T01:07:46;97713.28;;;7.20;49.23
26083;BME280;13848;49.018;12.078;2023-04-08T01:10:16;97710.59;;;7.20;48.71
26083;BME280;13848;49.018;12.078;2023-04-08T01:12:45;97706.66;;;7.23;48.97
26083;BME280;13848;49.018;12.078;2023-04-08T01:15:14;97709.97;;;7.25;49.27
26083;BME280;13848;49.018;12.078;2023-04-08T01:17:41;97702.09;;;7.16;49.08
26083;BME280;13848;49.018;12.078;2023-04-08T01:20:08;97712.59;;;7.11;48.98
26083;BME280;13848;49.018;12.078;2023-04-08T01:22:43;97704.56;;;7.11;49.13
26083;BME280;13848;49.018;12.078;2023-04-08T01:25:15;97716.06;;;7.05;49.26
26083;BME280;13848;49.018;12.078;2023-04-08T01:27:43;97716.28;;;7.04;49.67
26083;BME280;13848;49.018;12.078;2023-04-08T01:30:10;97705.13;;;7.00;49.46
26083;BME280;13848;49.018;12.078;2023-04-08T01:32:37;97706.56;;;6.96;49.57
26083;BME280;13848;49.018;12.078;2023-04-08T01:35:05;97712.53;;;6.98;49.25
26083;BME280;13848;49.018;12.078;2023-04-08T01:37:32;97705.69;;;6.96;49.92
26083;BME280;13848;49.018;12.078;2023-04-08T01:40:00;97710.25;;;6.95;50.07
26083;BME280;13848;49.018;12.078;2023-04-08T01:42:27;97704.25;;;6.93;49.67
26083;BME280;13848;49.018;12.078;2023-04-08T01:44:57;97703.22;;;6.94;49.92
26083;BME280;13848;49.018;12.078;2023-04-08T01:47:24;97708.78;;;6.92;50.24
26083;BME280;13848;49.018;12.078;2023-04-08T01:49:51;97702.38;;;6.87;49.94
26083;BME280;13848;49.018;12.078;2023-04-08T01:52:19;97702.53;;;6.79;50.52
26083;BME280;13848;49.018;12.078;2023-04-08T01:54:45;97705.22;;;6.79;50.71
26083;BME280;13848;49.018;12.078;2023-04-08T01:57:14;97701.09;;;6.83;49.91
26083;BME280;13848;49.018;12.078;2023-04-08T01:59:42;97710.78;;;6.84;49.25
26083;BME280;13848;49.018;12.078;2023-04-08T02:02:12;97705.63;;;6.82;49.50
26083;BME280;13848;49.018;12.078;2023-04-08T02:04:38;97713.44;;;6.77;50.37
26083;BME280;13848;49.018;12.078;2023-04-08T02:07:05;97710.16;;;6.82;49.08
26083;BME280;13848;49.018;12.078;2023-04-08T02:09:31;97711.38;;;6.73;49.55
26083;BME280;13848;49.018;12.078;2023-04-08T02:11:57;97705.59;;;6.76;49.39
26083;BME280;13848;49.018;12.078;2023-04-08T02:14:23;97708.28;;;6.76;49.50
26083;BME280;13848;49.018;12.078;2023-04-08T02:16:52;97701.84;;;6.70;49.92
26083;BME280;13848;49.018;12.078;2023-04-08T02:19:23;97698.09;;;6.64;49.09
26083;BME280;13848;49.018;12.078;2023-04-08T02:21:55;97700.53;;;6.59;49.74
26083;BME280;13848;49.018;12.078;2023-04-08T02:24:22;97709.06;;;6.70;49.35
26083;BME280;13848;49.018;12.078;2023-04-08T02:26:50;97702.25;;;6.67;49.45
26083;BME280;13848;49.018;12.078;2023-04-08T02:29:17;97703.38;;;6.51;49.68
26083;BME280;13848;49.018;12.078;2023-04-08T02:31:44;97702.88;;;6.69;50.00
26083;BME280;13848;49.018;12.078;2023-04-08T02:34:12;97705.34;;;6.71;49.06
26083;BME280;13848;49.018;12.078;2023-04-08T02:36:40;97705.56;;;6.69;49.72
26083;BME280;13848;49.018;12.078;2023-04-08T02:39:06;97710.13;;;6.75;49.57
26083;BME280;13848;49.018;12.078;2023-04-08T02:41:32;97708.91;;;6.78;49.59
26083;BME280;13848;49.018;12.078;2023-04-08T02:43:58;97706.22;;;6.78;49.03
26083;BME280;13848;49.018;12.078;2023-04-08T02:46:24;97709.31;;;6.75;49.77
26083;BME280;13848;49.018;12.078;2023-04-08T02:48:50;97706.63;;;6.75;49.64
26083;BME280;13848;49.018;12.078;2023-04-08T02:51:16;97709.00;;;6.91;49.44
26083;BME280;13848;49.018;12.078;2023-04-08T02:53:43;97713.94;;;6.94;49.79
26083;BME280;13848;49.018;12.078;2023-04-08T02:56:09;97710.69;;;6.99;49.30
26083;BME280;13848;49.018;12.078;2023-04-08T02:58:35;97709.84;;;6.98;49.25
26083;BME280;13848;49.018;12.078;2023-04-08T03:01:01;97707.56;;;6.95;49.92
26083;BME280;13848;49.018;12.078;2023-04-08T03:03:27;97708.13;;;6.84;49.72
26083;BME280;13848;49.018;12.078;2023-04-08T03:05:53;97713.34;;;6.92;49.97
26083;BME280;13848;49.018;12.078;2023-04-08T03:08:19;97714.53;;;6.89;49.47
26083;BME280;13848;49.018;12.078;2023-04-08T03:10:46;97706.09;;;6.86;50.08
26083;BME280;13848;49.018;12.078;2023-04-08T03:13:12;97712.25;;;6.86;50.34
26083;BME280;13848;49.018;12.078;2023-04-08T03:15:38;97708.19;;;6.90;50.06
26083;BME280;13848;49.018;12.078;2023-04-08T03:18:04;97707.97;;;6.92;49.77
26083;BME280;13848;49.018;12.078;2023-04-08T03:20:30;97714.75;;;6.88;50.20
26083;BME280;13848;49.018;12.078;2023-04-08T03:22:56;97710.09;;;6.69;50.62
26083;BME280;13848;49.018;12.078;2023-04-08T03:25:22;97716.72;;;6.73;50.19
26083;BME280;13848;49.018;12.078;2023-04-08T03:27:49;97719.69;;;6.56;50.13
26083;BME280;13848;49.018;12.078;2023-04-08T03:30:15;97717.47;;;6.66;51.12
26083;BME280;13848;49.018;12.078;2023-04-08T03:32:41;97714.59;;;6.61;50.08
26083;BME280;13848;49.018;12.078;2023-04-08T03:35:08;97711.94;;;6.68;50.66
26083;BME280;13848;49.018;12.078;2023-04-08T03:37:34;97722.84;;;6.66;50.68
26083;BME280;13848;49.018;12.078;2023-04-08T03:40:00;97735.38;;;6.59;51.04
26083;BME280;13848;49.018;12.078;2023-04-08T03:42:26;97722.44;;;6.63;51.11
26083;BME280;13848;49.018;12.078;2023-04-08T03:44:53;97724.84;;;6.58;50.80
26083;BME280;13848;49.018;12.078;2023-04-08T03:47:19;97725.38;;;6.75;51.14
26083;BME280;13848;49.018;12.078;2023-04-08T03:49:45;97722.84;;;6.66;50.65
26083;BME280;13848;49.018;12.078;2023-04-08T03:52:11;97724.28;;;6.62;50.63
26083;BME280;13848;49.018;12.078;2023-04-08T03:54:37;97734.72;;;6.51;51.64
26083;BME280;13848;49.018;12.078;2023-04-08T03:57:03;97736.31;;;6.45;50.77
26083;BME280;13848;49.018;12.078;2023-04-08T03:59:29;97725.59;;;6.45;51.06
26083;BME280;13848;49.018;12.078;2023-04-08T04:01:56;97734.28;;;6.54;50.85
26083;BME280;13848;49.018;12.078;2023-04-08T04:04:22;97736.97;;;6.54;50.92
26083;BME280;13848;49.018;12.078;2023-04-08T04:06:48;97737.47;;;6.36;51.11
26083;BME280;13848;49.018;12.078;2023-04-08T04:09:14;97742.81;;;6.36;52.46
26083;BME280;13848;49.018;12.078;2023-04-08T04:11:40;97744.47;;;6.37;52.18
26083;BME280;13848;49.018;12.078;2023-04-08T04:14:06;97747.44;;;6.49;51.18
26083;BME280;13848;49.018;12.078;2023-04-08T04:16:32;97746.25;;;6.51;51.51
26083;BME280;13848;49.018;12.078;2023-04-08T04:18:59;97743.81;;;6.56;50.76
26083;BME280;13848;49.018;12.078;2023-04-08T04:21:25;97744.38;;;6.52;51.71
26083;BME280;13848;49.018;12.078;2023-04-08T04:23:51;97748.34;;;6.56;51.87
26083;BME280;13848;49.018;12.078;2023-04-08T04:26:17;97744.44;;;6.58;51.97
26083;BME280;13848;49.018;12.078;2023-04-08T04:28:43;97746.75;;;6.61;50.90
26083;BME280;13848;49.018;12.078;2023-04-08T04:31:17;97753.88;;;6.54;51.24
26083;BME280;13848;49.018;12.078;2023-04-08T04:33:43;97752.28;;;6.60;51.69
26083;BME280;13848;49.018;12.078;2023-04-08T04:36:10;97754.41;;;6.43;52.26
26083;BME280;13848;49.018;12.078;2023-04-08T04:38:36;97754.28;;;6.51;51.46
26083;BME280;13848;49.018;12.078;2023-04-08T04:41:02;97755.31;;;6.50;51.57
26083;BME280;13848;49.018;12.078;2023-04-08T04:43:28;97760.88;;;6.27;52.26
26083;BME280;13848;49.018;12.078;2023-04-08T04:45:54;97757.22;;;6.35;53.04
26083;BME280;13848;49.018;12.078;2023-04-08T04:48:20;97764.25;;;6.36;52.57
26083;BME280;13848;49.018;12.078;2023-04-08T04:50:53;97762.50;;;6.50;52.24
26083;BME280;13848;49.018;12.078;2023-04-08T04:53:20;97768.03;;;6.48;51.72
26083;BME280;13848;49.018;12.078;2023-04-08T04:55:46;97763.19;;;6.58;52.18
26083;BME280;13848;49.018;12.078;2023-04-08T04:58:12;97764.84;;;6.59;52.22
26083;BME280;13848;49.018;12.078;2023-04-08T05:00:38;97762.97;;;6.60;52.01
26083;BME280;13848;49.018;12.078;2023-04-08T05:03:04;97771.50;;;6.42;52.24
26083;BME280;13848;49.018;12.078;2023-04-08T05:05:30;97777.34;;;6.52;52.10
26083;BME280;13848;49.018;12.078;2023-04-08T05:07:56;97774.94;;;6.57;51.91
26083;BME280;13848;49.018;12.078;2023-04-08T05:10:23;97780.53;;;6.62;52.03
26083;BME280;13848;49.018;12.078;2023-04-08T05:12:49;97781.31;;;6.56;51.71
26083;BME280;13848;49.018;12.078;2023-04-08T05:15:15;97781.44;;;6.48;52.45
26083;BME280;13848;49.018;12.078;2023-04-08T05:17:41;97786.22;;;6.53;51.57
26083;BME280;13848;49.018;12.078;2023-04-08T05:20:07;97788.44;;;6.49;52.58
26083;BME280;13848;49.018;12.078;2023-04-08T05:22:33;97782.78;;;6.37;52.14
26083;BME280;13848;49.018;12.078;2023-04-08T05:24:59;97785.91;;;6.41;52.13
26083;BME280;13848;49.018;12.078;2023-04-08T05:27:27;97791.28;;;6.41;52.44
26083;BME280;13848;49.018;12.078;2023-04-08T05:29:53;97791.41;;;6.33;52.84
26083;BME280;13848;49.018;12.078;2023-04-08T05:32:19;97795.75;;;6.34;52.81
26083;BME280;13848;49.018;12.078;2023-04-08T05:34:44;97801.34;;;6.39;51.95
26083;BME280;13848;49.018;12.078;2023-04-08T05:37:10;97808.09;;;6.35;52.95
26083;BME280;13848;49.018;12.078;2023-04-08T05:39:36;97809.84;;;6.21;53.23
26083;BME280;13848;49.018;12.078;2023-04-08T05:42:02;97819.47;;;6.16;53.77
26083;BME280;13848;49.018;12.078;2023-04-08T05:44:30;97826.34;;;6.25;54.00
26083;BME280;13848;49.018;12.078;2023-04-08T05:46:56;97828.38;;;6.23;54.52
26083;BME280;13848;49.018;12.078;2023-04-08T05:49:22;97831.56;;;6.11;55.74
26083;BME280;13848;49.018;12.078;2023-04-08T05:51:48;97836.13;;;5.96;59.44
26083;BME280;13848;49.018;12.078;2023-04-08T05:54:14;97838.63;;;5.98;58.71
26083;BME280;13848;49.018;12.078;2023-04-08T05:56:40;97840.34;;;6.05;58.69
26083;BME280;13848;49.018;12.078;2023-04-08T05:59:06;97843.31;;;5.96;59.44
26083;BME280;13848;49.018;12.078;2023-04-08T06:01:33;97844.22;;;6.03;60.98
26083;BME280;13848;49.018;12.078;2023-04-08T06:03:59;97849.66;;;6.09;60.51
26083;BME280;13848;49.018;12.078;2023-04-08T06:06:25;97845.16;;;5.95;61.70
26083;BME280;13848;49.018;12.078;2023-04-08T06:08:51;97853.34;;;6.08;60.86
26083;BME280;13848;49.018;12.078;2023-04-08T06:11:16;97859.09;;;6.05;61.42
26083;BME280;13848;49.018;12.078;2023-04-08T06:13:42;97858.53;;;5.95;62.63
26083;BME280;13848;49.018;12.078;2023-04-08T06:16:10;97869.97;;;5.89;63.86
26083;BME280;13848;49.018;12.078;2023-04-08T06:18:37;97871.28;;;5.93;64.30
26083;BME280;13848;49.018;12.078;2023-04-08T06:21:03;97867.28;;;5.89;63.77
26083;BME280;13848;49.018;12.078;2023-04-08T06:23:29;97873.25;;;5.70;66.05
26083;BME280;13848;49.018;12.078;2023-04-08T06:25:55;97876.84;;;5.47;65.95
26083;BME280;13848;49.018;12.078;2023-04-08T06:28:21;97876.19;;;5.30;70.44
26083;BME280;13848;49.018;12.078;2023-04-08T06:30:47;97884.41;;;5.58;66.83
26083;BME280;13848;49.018;12.078;2023-04-08T06:33:13;97884.41;;;5.58;66.50
26083;BME280;13848;49.018;12.078;2023-04-08T06:35:40;97889.00;;;5.65;68.49
26083;BME280;13848;49.018;12.078;2023-04-08T06:38:06;97884.00;;;5.61;67.67
26083;BME280;13848;49.018;12.078;2023-04-08T06:40:32;97888.72;;;5.59;68.00
26083;BME280;13848;49.018;12.078;2023-04-08T06:42:58;97887.72;;;5.46;67.28
26083;BME280;13848;49.018;12.078;2023-04-08T06:45:24;97887.06;;;5.58;66.84
26083;BME280;13848;49.018;12.078;2023-04-08T06:47:50;97898.22;;;5.77;66.95
26083;BME280;13848;49.018;12.078;2023-04-08T06:50:16;97892.03;;;5.76;68.26
26083;BME280;13848;49.018;12.078;2023-04-08T06:52:43;97895.28;;;5.72;68.00
26083;BME280;13848;49.018;12.078;2023-04-08T06:55:09;97898.56;;;5.74;67.85
26083;BME280;13848;49.018;12.078;2023-04-08T06:57:35;97895.53;;;5.77;68.30
26083;BME280;13848;49.018;12.078;2023-04-08T07:00:01;97891.22;;;5.46;68.88
26083;BME280;13848;49.018;12.078;2023-04-08T07:02:27;97890.84;;;5.49;70.89
26083;BME280;13848;49.018;12.078;2023-04-08T07:04:53;97898.69;;;5.66;70.13
26083;BME280;13848;49.018;12.078;2023-04-08T07:07:19;97906.59;;;5.74;69.11
26083;BME280;13848;49.018;12.078;2023-04-08T07:09:46;97899.78;;;5.71;67.85
26083;BME280;13848;49.018;12.078;2023-04-08T07:12:12;97908.38;;;5.81;68.38
26083;BME280;13848;49.018;12.078;2023-04-08T07:14:38;97911.47;;;5.85;68.44
26083;BME280;13848;49.018;12.078;2023-04-08T07:17:04;97914.63;;;5.74;68.41
26083;BME280;13848;49.018;12.078;2023-04-08T07:19:30;97915.84;;;5.71;67.82
26083;BME280;13848;49.018;12.078;2023-04-08T07:21:56;97919.72;;;5.83;69.50
26083;BME280;13848;49.018;12.078;2023-04-08T07:24:22;97914.81;;;5.87;69.49
26083;BME280;13848;49.018;12.078;2023-04-08T07:26:49;97919.28;;;5.80;70.55
26083;BME280;13848;49.018;12.078;2023-04-08T07:29:15;97920.47;;;5.63;70.06
26083;BME280;13848;49.018;12.078;2023-04-08T07:31:42;97923.69;;;5.73;70.26
26083;BME280;13848;49.018;12.078;2023-04-08T07:34:09;97919.16;;;5.58;71.90
26083;BME280;13848;49.018;12.078;2023-04-08T07:36:35;97925.25;;;5.67;69.98
26083;BME280;13848;49.018;12.078;2023-04-08T07:39:01;97922.28;;;5.77;70.45
26083;BME280;13848;49.018;12.078;2023-04-08T07:41:27;97923.31;;;5.76;70.43
26083;BME280;13848;49.018;12.078;2023-04-08T07:43:54;97921.84;;;5.58;71.35
26083;BME280;13848;49.018;12.078;2023-04-08T07:46:20;97921.38;;;5.70;71.22
26083;BME280;13848;49.018;12.078;2023-04-08T07:48:46;97927.66;;;5.77;71.35
26083;BME280;13848;49.018;12.078;2023-04-08T07:51:12;97929.66;;;5.90;70.76
26083;BME280;13848;49.018;12.078;2023-04-08T07:53:39;97920.19;;;5.87;70.32
26083;BME280;13848;49.018;12.078;2023-04-08T07:56:10;97933.88;;;5.92;70.17
26083;BME280;13848;49.018;12.078;2023-04-08T07:58:36;97931.81;;;5.94;70.96
26083;BME280;13848;49.018;12.078;2023-04-08T08:01:03;97932.38;;;5.75;71.93
26083;BME280;13848;49.018;12.078;2023-04-08T08:03:29;97929.03;;;5.73;72.54
26083;BME280;13848;49.018;12.078;2023-04-08T08:05:55;97930.59;;;5.67;72.42
26083;BME280;13848;49.018;12.078;2023-04-08T08:08:21;97933.94;;;5.69;73.70
26083;BME280;13848;49.018;12.078;2023-04-08T08:10:47;97934.94;;;5.83;72.21
26083;BME280;13848;49.018;12.078;2023-04-08T08:13:13;97940.84;;;5.64;74.21
26083;BME280;13848;49.018;12.078;2023-04-08T08:15:39;97945.19;;;5.65;72.35
26083;BME280;13848;49.018;12.078;2023-04-08T08:18:06;97940.56;;;5.73;71.59
26083;BME280;13848;49.018;12.078;2023-04-08T08:20:34;97941.38;;;5.74;73.20
26083;BME280;13848;49.018;12.078;2023-04-08T08:23:00;97955.41;;;5.91;71.27
26083;BME280;13848;49.018;12.078;2023-04-08T08:25:26;97959.06;;;5.98;71.08
26083;BME280;13848;49.018;12.078;2023-04-08T08:27:55;97954.53;;;5.98;70.84
26083;BME280;13848;49.018;12.078;2023-04-08T08:30:21;97957.56;;;5.80;71.55
26083;BME280;13848;49.018;12.078;2023-04-08T08:32:47;97953.84;;;5.67;71.97
26083;BME280;13848;49.018;12.078;2023-04-08T08:35:15;97961.78;;;5.75;72.27
26083;BME280;13848;49.018;12.078;2023-04-08T08:37:41;97952.28;;;5.87;72.78
26083;BME280;13848;49.018;12.078;2023-04-08T08:40:10;97956.97;;;5.85;72.94
26083;BME280;13848;49.018;12.078;2023-04-08T08:42:37;97959.66;;;5.85;72.01
26083;BME280;13848;49.018;12.078;2023-04-08T08:45:04;97960.66;;;5.84;72.82
26083;BME280;13848;49.018;12.078;2023-04-08T08:47:30;97958.81;;;5.84;73.46
26083;BME280;13848;49.018;12.078;2023-04-08T08:49:56;97968.78;;;5.91;72.47
26083;BME280;13848;49.018;12.078;2023-04-08T08:52:23;97966.41;;;6.10;71.77
26083;BME280;13848;49.018;12.078;2023-04-08T08:54:56;97973.22;;;6.13;71.12
26083;BME280;13848;49.018;12.078;2023-04-08T08:57:22;97973.41;;;6.26;71.60
26083;BME280;13848;49.018;12.078;2023-04-08T08:59:48;97966.47;;;6.32;71.75
26083;BME280;13848;49.018;12.078;2023-04-08T09:02:23;97975.41;;;6.39;71.08
26083;BME280;13848;49.018;12.078;2023-04-08T09:04:55;97976.69;;;5.92;72.75
26083;BME280;13848;49.018;12.078;2023-04-08T09:07:23;97973.31;;;6.20;71.14
26083;BME280;13848;49.018;12.078;2023-04-08T09:09:50;97983.59;;;6.16;72.09
26083;BME280;13848;49.018;12.078;2023-04-08T09:12:17;97986.63;;;6.28;72.22
26083;BME280;13848;49.018;12.078;2023-04-08T09:14:43;97983.19;;;6.34;72.31
26083;BME280;13848;49.018;12.078;2023-04-08T09:17:09;97989.63;;;6.39;71.46
26083;BME280;13848;49.018;12.078;2023-04-08T09:19:35;97983.97;;;6.49;71.50
26083;BME280;13848;49.018;12.078;2023-04-08T09:22:04;97980.41;;;8.12;72.47
26083;BME280;13848;49.018;12.078;2023-04-08T09:24:31;97983.78;;;8.27;68.99
26083;BME280;13848;49.018;12.078;2023-04-08T09:26:58;97982.81;;;7.65;68.45
26083;BME280;13848;49.018;12.078;2023-04-08T09:29:24;97994.50;;;7.08;69.81
26083;BME280;13848;49.018;12.078;2023-04-08T09:31:53;97988.50;;;6.85;69.41
26083;BME280;13848;49.018;12.078;2023-04-08T09:34:19;97984.13;;;6.84;69.91
26083;BME280;13848;49.018;12.078;2023-04-08T09:36:45;97992.94;;;6.78;71.08
26083;BME280;13848;49.018;12.078;2023-04-08T09:39:11;97996.63;;;6.55;71.12
26083;BME280;13848;49.018;12.078;2023-04-08T09:41:38;97992.94;;;6.56;71.37
26083;BME280;13848;49.018;12.078;2023-04-08T09:44:07;97999.69;;;6.52;71.98
26083;BME280;13848;49.018;12.078;2023-04-08T09:46:39;97992.28;;;6.54;71.47
26083;BME280;13848;49.018;12.078;2023-04-08T09:49:06;97997.94;;;6.45;72.90
26083;BME280;13848;49.018;12.078;2023-04-08T09:51:39;97994.28;;;6.67;72.45
26083;BME280;13848;49.018;12.078;2023-04-08T09:54:12;97998.16;;;6.64;71.78
26083;BME280;13848;49.018;12.078;2023-04-08T09:56:43;97993.59;;;6.80;72.93
26083;BME280;13848;49.018;12.078;2023-04-08T09:59:14;97986.72;;;6.92;72.73
26083;BME280;13848;49.018;12.078;2023-04-08T10:01:45;97994.50;;;7.08;75.08
26083;BME280;13848;49.018;12.078;2023-04-08T10:04:15;97998.06;;;7.37;72.83
26083;BME280;13848;49.018;12.078;2023-04-08T10:06:43;97997.03;;;7.38;73.09
26083;BME280;13848;49.018;12.078;2023-04-08T10:09:09;98001.91;;;7.28;71.80
26083;BME280;13848;49.018;12.078;2023-04-08T10:11:36;98001.38;;;7.39;71.95
26083;BME280;13848;49.018;12.078;2023-04-08T10:14:02;98001.75;;;7.36;71.79
26083;BME280;13848;49.018;12.078;2023-04-08T10:16:29;97996.47;;;7.00;72.13
26083;BME280;13848;49.018;12.078;2023-04-08T10:18:55;97991.16;;;7.06;71.98
26083;BME280;13848;49.018;12.078;2023-04-08T10:21:35;97995.50;;;7.07;71.49
26083;BME280;13848;49.018;12.078;2023-04-08T10:24:02;97997.34;;;7.07;71.66
26083;BME280;13848;49.018;12.078;2023-04-08T10:26:35;97996.72;;;6.83;73.22
26083;BME280;13848;49.018;12.078;2023-04-08T10:32:26;98005.22;;;7.08;72.24
26083;BME280;13848;49.018;12.078;2023-04-08T10:34:52;98004.72;;;6.98;71.90
26083;BME280;13848;49.018;12.078;2023-04-08T10:37:18;98010.84;;;6.92;71.93
26083;BME280;13848;49.018;12.078;2023-04-08T10:39:48;98009.56;;;6.88;72.15
26083;BME280;13848;49.018;12.078;2023-04-08T10:42:14;98005.69;;;6.90;72.52
26083;BME280;13848;49.018;12.078;2023-04-08T10:44:43;98010.94;;;6.84;73.16
26083;BME280;13848;49.018;12.078;2023-04-08T10:47:11;98019.50;;;6.94;72.85
26083;BME280;13848;49.018;12.078;2023-04-08T10:49:36;98016.59;;;7.10;71.81
26083;BME280;13848;49.018;12.078;2023-04-08T10:52:06;98018.13;;;7.19;72.00
26083;BME280;13848;49.018;12.078;2023-04-08T10:54:32;98018.91;;;7.13;72.65
26083;BME280;13848;49.018;12.078;2023-04-08T10:56:58;98022.97;;;7.09;72.44
26083;BME280;13848;49.018;12.078;2023-04-08T10:59:28;98018.81;;;7.07;72.34
26083;BME280;13848;49.018;12.078;2023-04-08T11:01:54;98017.72;;;7.23;72.08
26083;BME280;13848;49.018;12.078;2023-04-08T11:04:22;98008.78;;;7.37;71.67
26083;BME280;13848;49.018;12.078;2023-04-08T11:06:48;98014.06;;;7.30;71.25
26083;BME280;13848;49.018;12.078;2023-04-08T11:09:14;98009.78;;;7.36;71.42
26083;BME280;13848;49.018;12.078;2023-04-08T11:11:41;98019.31;;;7.38;70.90
26083;BME280;13848;49.018;12.078;2023-04-08T11:14:07;98010.00;;;7.34;71.30
26083;BME280;13848;49.018;12.078;2023-04-08T11:16:34;98014.53;;;7.34;71.75
26083;BME280;13848;49.018;12.078;2023-04-08T11:19:01;98014.00;;;7.45;70.59
26083;BME280;13848;49.018;12.078;2023-04-08T11:21:29;98006.78;;;7.45;70.67
26083;BME280;13848;49.018;12.078;2023-04-08T11:23:55;98003.91;;;7.47;70.78
26083;BME280;13848;49.018;12.078;2023-04-08T11:26:22;98005.59;;;7.48;71.39
26083;BME280;13848;49.018;12.078;2023-04-08T11:28:48;98005.44;;;7.56;71.04
26083;BME280;13848;49.018;12.078;2023-04-08T11:31:14;98001.16;;;7.62;70.99
26083;BME280;13848;49.018;12.078;2023-04-08T11:33:45;98008.69;;;7.52;71.36
26083;BME280;13848;49.018;12.078;2023-04-08T11:36:11;97999.81;;;7.51;71.47
26083;BME280;13848;49.018;12.078;2023-04-08T11:38:39;98008.63;;;7.66;70.36
26083;BME280;13848;49.018;12.078;2023-04-08T11:41:05;98009.69;;;7.72;70.06
26083;BME280;13848;49.018;12.078;2023-04-08T11:43:31;98012.00;;;7.82;70.01
26083;BME280;13848;49.018;12.078;2023-04-08T11:45:57;98008.16;;;7.63;70.10
26083;BME280;13848;49.018;12.078;2023-04-08T11:48:23;98013.81;;;7.46;71.11
26083;BME280;13848;49.018;12.078;2023-04-08T11:51:01;98006.47;;;7.55;71.50
26083;BME280;13848;49.018;12.078;2023-04-08T11:53:27;98003.00;;;7.61;70.86
26083;BME280;13848;49.018;12.078;2023-04-08T11:55:55;98001.72;;;7.57;71.09
26083;BME280;13848;49.018;12.078;2023-04-08T11:58:21;98008.63;;;7.66;70.56
26083;BME280;13848;49.018;12.078;2023-04-08T12:00:46;98012.75;;;7.69;70.58
26083;BME280;13848;49.018;12.078;2023-04-08T12:03:12;98011.53;;;7.71;69.85
26083;BME280;13848;49.018;12.078;2023-04-08T12:05:38;98013.63;;;7.76;70.25
26083;BME280;13848;49.018;12.078;2023-04-08T12:08:04;98019.06;;;7.83;69.89
26083;BME280;13848;49.018;12.078;2023-04-08T12:10:30;98020.66;;;7.77;69.75
26083;BME280;13848;49.018;12.078;2023-04-08T12:12:58;98021.97;;;7.88;69.39
26083;BME280;13848;49.018;12.078;2023-04-08T12:15:24;98020.31;;;7.87;69.97
26083;BME280;13848;49.018;12.078;2023-04-08T12:17:49;98025.84;;;7.79;69.28
26083;BME280;13848;49.018;12.078;2023-04-08T12:20:15;98022.78;;;7.88;69.79
26083;BME280;13848;49.018;12.078;2023-04-08T12:22:41;98022.44;;;7.98;69.13
26083;BME280;13848;49.018;12.078;2023-04-08T12:25:08;98017.88;;;7.92;69.68
26083;BME280;13848;49.018;12.078;2023-04-08T12:27:34;98022.44;;;7.98;69.77
26083;BME280;13848;49.018;12.078;2023-04-08T12:30:02;98026.91;;;7.84;70.18
26083;BME280;13848;49.018;12.078;2023-04-08T12:32:28;98023.19;;;7.85;69.61
26083;BME280;13848;49.018;12.078;2023-04-08T12:34:54;98026.25;;;7.82;69.96
26083;BME280;13848;49.018;12.078;2023-04-08T12:37:20;98033.09;;;7.85;70.01
26083;BME280;13848;49.018;12.078;2023-04-08T12:39:46;98031.59;;;7.76;70.43
26083;BME280;13848;49.018;12.078;2023-04-08T12:42:12;98027.50;;;7.80;69.57
26083;BME280;13848;49.018;12.078;2023-04-08T12:44:38;98028.13;;;7.82;69.54
26083;BME280;13848;49.018;12.078;2023-04-08T12:47:06;98030.56;;;7.77;69.66
26083;BME280;13848;49.018;12.078;2023-04-08T12:49:32;98028.53;;;7.79;69.60
26083;BME280;13848;49.018;12.078;2023-04-08T12:51:57;98031.03;;;7.87;69.45
26083;BME280;13848;49.018;12.078;2023-04-08T12:54:23;98037.94;;;7.68;70.08
26083;BME280;13848;49.018;12.078;2023-04-08T12:56:49;98028.47;;;7.72;70.09
26083;BME280;13848;49.018;12.078;2023-04-08T12:59:15;98032.59;;;7.74;69.71
26083;BME280;13848;49.018;12.078;2023-04-08T13:01:42;98028.91;;;7.76;69.66